createdAt,value
2023-05-25T06:01:30.489Z,11.40
2023-05-25T06:03:57.141Z,11.50
2023-05-25T06:06:23.793Z,11.40
2023-05-25T06:08:50.491Z,11.40
2023-05-25T06:11:17.098Z,11.60
2023-05-25T06:13:45.443Z,11.60
2023-05-25T06:16:13.309Z,11.80
2023-05-25T06:18:40.037Z,11.60
2023-05-25T06:21:06.808Z,11.70
2023-05-25T06:23:33.465Z,12.00
2023-05-25T06:26:06.845Z,12.20
2023-05-25T06:28:33.543Z,12.50
2023-05-25T06:31:00.357Z,12.80
2023-05-25T06:33:26.989Z,12.80
2023-05-25T06:35:56.438Z,13.10
2023-05-25T06:38:24.681Z,13.50
2023-05-25T06:40:51.285Z,13.50
2023-05-25T06:43:17.936Z,13.80
2023-05-25T06:45:44.697Z,13.40
2023-05-25T06:48:11.595Z,13.60
2023-05-25T06:50:39.677Z,13.30
2023-05-25T06:53:06.400Z,13.20
2023-05-25T06:55:33.008Z,13.20
2023-05-25T06:57:59.662Z,13.50
2023-05-25T07:00:26.514Z,13.20
2023-05-25T07:02:53.350Z,13.20
2023-05-25T07:05:20.052Z,12.60
2023-05-25T07:07:46.710Z,12.90
2023-05-25T07:10:13.338Z,13.10
2023-05-25T07:12:39.984Z,13.50
2023-05-25T07:15:07.350Z,13.20
2023-05-25T07:17:33.988Z,13.20
2023-05-25T07:20:00.789Z,13.50
2023-05-25T07:22:27.449Z,13.40
2023-05-25T07:24:54.114Z,13.50
2023-05-25T07:27:20.736Z,13.50
2023-05-25T07:29:47.392Z,13.30
2023-05-25T07:32:14.017Z,13.70
2023-05-25T07:34:41.407Z,13.90
2023-05-25T07:37:08.047Z,14.00
2023-05-25T07:39:34.629Z,13.90
2023-05-25T07:42:01.884Z,14.00
2023-05-25T07:44:29.993Z,14.10
2023-05-25T07:46:56.674Z,14.50
2023-05-25T07:49:23.289Z,14.40
2023-05-25T07:51:49.899Z,14.70
2023-05-25T07:54:16.627Z,15.00
2023-05-25T07:56:43.237Z,15.60
2023-05-25T07:59:10.833Z,15.90
2023-05-25T08:01:38.932Z,15.80
2023-05-25T08:04:06.131Z,15.60
2023-05-25T08:06:32.898Z,15.80
2023-05-25T08:08:59.534Z,15.90
2023-05-25T08:11:26.643Z,16.00
2023-05-25T08:13:53.664Z,15.40
2023-05-25T08:16:20.433Z,15.70
2023-05-25T08:18:47.297Z,16.10
2023-05-25T08:21:14.367Z,15.50
2023-05-25T08:23:42.519Z,14.90
2023-05-25T08:26:28.673Z,15.40
2023-05-25T08:28:56.928Z,15.50
2023-05-25T08:31:23.642Z,15.70
2023-05-25T08:33:50.441Z,16.10
2023-05-25T08:36:17.819Z,15.90
2023-05-25T08:38:44.457Z,16.00
2023-05-25T08:41:12.929Z,15.50
2023-05-25T08:43:41.530Z,15.60
2023-05-25T08:46:09.382Z,16.00
2023-05-25T08:48:41.775Z,16.20
2023-05-25T08:51:11.711Z,16.20
2023-05-25T08:53:41.167Z,16.60
2023-05-25T08:56:13.906Z,16.60
2023-05-25T08:58:52.834Z,17.30
2023-05-25T09:01:22.522Z,17.00
2023-05-25T09:03:50.223Z,17.10
2023-05-25T09:06:17.612Z,16.90
2023-05-25T09:08:44.963Z,16.90
2023-05-25T09:11:16.192Z,16.90
2023-05-25T09:13:43.728Z,17.40
2023-05-25T09:16:11.106Z,17.90
2023-05-25T09:18:37.803Z,17.90
2023-05-25T09:21:04.609Z,18.50
2023-05-25T09:23:31.376Z,18.10
2023-05-25T09:25:58.364Z,17.50
2023-05-25T09:28:27.390Z,17.80
2023-05-25T09:30:55.159Z,18.00
2023-05-25T09:33:22.217Z,18.60
2023-05-25T09:35:49.219Z,18.10
2023-05-25T09:38:17.037Z,18.20
2023-05-25T09:40:44.908Z,18.40
2023-05-25T09:43:15.716Z,18.90
2023-05-25T09:45:46.614Z,19.00
2023-05-25T09:48:13.541Z,19.60
2023-05-25T09:50:40.800Z,20.00
2023-05-25T09:53:07.438Z,19.40
2023-05-25T09:55:51.352Z,19.20
2023-05-25T09:58:19.465Z,19.10
2023-05-25T10:00:46.398Z,19.30
2023-05-25T10:03:15.172Z,19.80
2023-05-25T10:05:42.097Z,19.80
2023-05-25T10:08:10.418Z,19.70
2023-05-25T10:10:37.869Z,19.70
2023-05-25T10:13:08.045Z,19.90
2023-05-25T10:15:39.078Z,19.70
2023-05-25T10:18:07.110Z,20.00
2023-05-25T10:20:35.255Z,20.40
2023-05-25T10:23:10.659Z,19.60
2023-05-25T10:25:43.882Z,19.70
2023-05-25T10:28:26.664Z,19.30
2023-05-25T10:30:54.065Z,19.70
2023-05-25T10:33:21.693Z,19.90
2023-05-25T10:36:02.123Z,19.80
2023-05-25T10:38:31.529Z,20.20
2023-05-25T10:40:59.858Z,20.60
2023-05-25T10:43:27.559Z,19.70
2023-05-25T10:45:56.213Z,19.50
2023-05-25T10:48:24.650Z,19.70
2023-05-25T10:50:51.736Z,19.30
2023-05-25T10:53:21.173Z,19.30
2023-05-25T10:55:53.749Z,19.70
2023-05-25T10:58:22.386Z,20.30
2023-05-25T11:01:07.334Z,21.30
2023-05-25T11:24:51.861Z,21.50
2023-05-25T11:27:27.478Z,21.20
2023-05-25T11:32:26.697Z,20.90
2023-05-25T11:34:54.012Z,20.50
2023-05-25T11:37:21.591Z,20.70
2023-05-25T11:39:49.421Z,20.90
2023-05-25T15:33:47.864Z,25.60
2023-05-25T15:36:17.268Z,26.40
2023-05-25T15:38:44.423Z,26.50
2023-05-25T15:41:14.451Z,26.80
2023-05-25T15:43:41.074Z,27.00
2023-05-25T15:46:07.712Z,26.40
2023-05-25T15:48:34.365Z,26.80
2023-05-25T15:51:01.037Z,27.50
2023-05-25T15:53:27.636Z,27.40
2023-05-25T15:55:54.234Z,26.80
2023-05-25T15:58:20.930Z,27.50
2023-05-25T16:00:47.664Z,28.60
2023-05-25T16:03:14.330Z,26.70
2023-05-25T16:05:40.907Z,26.30
2023-05-25T16:08:07.547Z,26.50
2023-05-25T16:10:34.144Z,26.30
2023-05-25T16:13:01.018Z,26.90
2023-05-25T16:15:27.632Z,27.10
2023-05-25T16:17:54.210Z,28.00
2023-05-25T16:20:20.790Z,28.50
2023-05-25T16:22:47.360Z,27.00
2023-05-25T16:25:13.941Z,27.30
2023-05-25T16:27:40.681Z,27.40
2023-05-25T16:30:08.030Z,27.60
2023-05-25T16:32:34.881Z,26.90
2023-05-25T16:35:01.761Z,28.00
2023-05-25T16:37:28.337Z,26.10
2023-05-25T16:39:57.440Z,28.50
2023-05-25T16:42:25.021Z,28.50
2023-05-25T16:44:51.829Z,29.40
2023-05-25T16:47:18.440Z,28.80
2023-05-25T16:49:45.015Z,28.40
2023-05-25T16:52:11.583Z,26.70
2023-05-25T16:54:38.595Z,26.60
2023-05-25T16:57:06.691Z,27.20
2023-05-25T16:59:33.281Z,27.80
2023-05-25T17:02:00.397Z,27.20
2023-05-25T17:04:27.291Z,28.30
2023-05-25T17:06:53.946Z,27.70
2023-05-25T17:09:20.986Z,27.40
2023-05-25T17:11:47.582Z,27.80
2023-05-25T17:14:14.199Z,27.00
2023-05-25T17:16:40.965Z,27.20
2023-05-25T17:19:07.569Z,26.30
2023-05-25T17:21:34.891Z,26.50
2023-05-25T17:24:01.522Z,27.20
2023-05-25T17:26:28.171Z,26.50
2023-05-25T17:28:56.410Z,26.40
2023-05-25T17:31:23.036Z,26.20
2023-05-25T17:33:49.635Z,23.90
2023-05-25T17:36:16.438Z,23.20
2023-05-25T17:38:43.543Z,22.80
2023-05-25T17:41:11.558Z,22.80
2023-05-25T17:43:38.139Z,23.30
2023-05-25T17:46:04.893Z,22.60
2023-05-25T17:48:31.565Z,22.20
2023-05-25T17:50:58.213Z,21.70
2023-05-25T17:53:24.810Z,21.30
2023-05-25T17:55:51.403Z,21.10
2023-05-25T17:58:17.971Z,20.70
2023-05-25T18:00:44.596Z,20.40
2023-05-25T18:03:11.408Z,20.30
2023-05-25T18:05:38.091Z,20.20
2023-05-25T18:08:05.029Z,20.00
2023-05-25T18:10:31.653Z,20.00
2023-05-25T18:12:58.281Z,19.90
2023-05-25T18:15:24.954Z,19.80
2023-05-25T18:17:51.655Z,19.70
2023-05-25T18:20:18.424Z,19.60
2023-05-25T18:22:45.044Z,19.50
2023-05-25T18:25:11.739Z,19.40
2023-05-25T18:27:38.695Z,19.30
2023-05-25T18:30:05.904Z,19.30
2023-05-25T18:32:32.639Z,19.20
2023-05-25T18:34:59.274Z,19.10
2023-05-25T18:37:26.481Z,19.00
2023-05-25T18:39:53.115Z,18.80
2023-05-25T18:42:19.718Z,18.70
2023-05-25T18:44:46.303Z,18.60
2023-05-25T18:47:12.964Z,18.40
2023-05-25T18:49:39.550Z,18.30
2023-05-25T18:52:08.093Z,18.20
2023-05-25T18:54:34.988Z,18.00
2023-05-25T18:57:02.925Z,18.00
2023-05-25T18:59:29.729Z,17.90
2023-05-25T19:01:56.347Z,17.80
2023-05-25T19:04:23.255Z,17.60
2023-05-25T19:06:49.872Z,17.50
2023-05-25T19:09:16.503Z,17.40
2023-05-25T19:11:43.159Z,17.20
2023-05-25T19:14:09.844Z,17.00
2023-05-25T19:16:36.446Z,16.90
2023-05-25T19:19:03.107Z,16.70
2023-05-25T19:21:29.674Z,16.60
2023-05-25T19:23:57.858Z,16.60
2023-05-25T19:26:24.597Z,16.60
2023-05-25T19:28:51.197Z,16.50
2023-05-25T19:31:17.912Z,16.40
2023-05-25T19:33:44.511Z,16.40
2023-05-25T19:36:11.616Z,16.20
2023-05-25T19:38:41.719Z,16.20
2023-05-25T19:41:08.992Z,16.00
2023-05-25T19:43:36.042Z,15.90
2023-05-25T19:46:04.551Z,15.80
2023-05-25T19:48:31.706Z,15.70
2023-05-25T19:50:58.350Z,15.60
2023-05-25T19:53:24.962Z,15.50
2023-05-25T19:55:51.611Z,15.40
2023-05-25T19:58:18.255Z,15.30
2023-05-25T20:00:44.917Z,15.30
2023-05-25T20:03:11.722Z,15.20
2023-05-25T20:05:38.951Z,15.10
2023-05-25T20:08:05.813Z,15.10
2023-05-25T20:10:38.541Z,15.00
2023-05-25T20:13:07.225Z,15.00
2023-05-25T20:15:34.094Z,15.00
2023-05-25T20:18:02.456Z,14.90
2023-05-25T20:20:29.185Z,14.90
2023-05-25T20:22:56.404Z,14.80
2023-05-25T20:25:23.025Z,14.80
2023-05-25T20:27:49.723Z,14.90
2023-05-25T20:30:19.627Z,14.80
2023-05-25T20:32:46.527Z,14.70
2023-05-25T20:35:13.627Z,14.70
2023-05-25T20:37:41.791Z,14.60
2023-05-25T20:40:08.910Z,14.60
2023-05-25T20:42:35.601Z,14.50
2023-05-25T20:45:02.408Z,14.40
2023-05-25T20:47:29.062Z,14.40
2023-05-25T20:49:55.943Z,14.30
2023-05-25T20:52:23.478Z,14.20
2023-05-25T20:54:50.078Z,14.20
2023-05-25T20:57:16.768Z,14.10
2023-05-25T20:59:43.389Z,14.10
2023-05-25T21:02:10.009Z,14.10
2023-05-25T21:04:36.686Z,14.00
2023-05-25T21:07:03.408Z,14.00
2023-05-25T21:09:30.002Z,13.90
2023-05-25T21:11:56.684Z,13.90
2023-05-25T21:14:23.648Z,13.80
2023-05-25T21:16:51.243Z,13.70
2023-05-25T21:19:17.862Z,13.60
2023-05-25T21:21:44.466Z,13.60
2023-05-25T21:24:11.349Z,13.50
2023-05-25T21:26:38.062Z,13.40
2023-05-25T21:29:04.695Z,13.40
2023-05-25T21:31:31.388Z,13.40
2023-05-25T21:33:59.994Z,13.30
2023-05-25T21:36:27.009Z,13.30
2023-05-25T21:38:53.592Z,13.20
2023-05-25T21:41:20.266Z,13.20
2023-05-25T21:43:46.875Z,13.20
2023-05-25T21:46:13.492Z,13.10
2023-05-25T21:48:40.063Z,13.10
2023-05-25T21:51:06.759Z,13.10
2023-05-25T21:53:33.532Z,13.10
2023-05-25T21:56:00.155Z,13.00
2023-05-25T21:58:26.796Z,13.00
2023-05-25T22:00:53.449Z,12.90
2023-05-25T22:03:20.334Z,12.90
2023-05-25T22:05:47.011Z,12.80
2023-05-25T22:08:13.691Z,12.80
2023-05-25T22:10:40.295Z,12.70
2023-05-25T22:13:07.160Z,12.70
2023-05-25T22:15:34.289Z,12.70
2023-05-25T22:18:01.546Z,12.70
2023-05-25T22:20:28.322Z,12.70
2023-05-25T22:22:54.990Z,12.60
2023-05-25T22:25:21.617Z,12.60
2023-05-25T22:27:48.401Z,12.60
2023-05-25T22:30:15.112Z,12.50
2023-05-25T22:32:41.817Z,12.50
2023-05-25T22:35:08.812Z,12.50
2023-05-25T22:37:35.485Z,12.40
2023-05-25T22:40:02.107Z,12.40
2023-05-25T22:42:28.755Z,12.30
2023-05-25T22:44:55.470Z,12.30
2023-05-25T22:47:22.137Z,12.30
2023-05-25T22:49:48.802Z,12.30
2023-05-25T22:52:15.474Z,12.30
2023-05-25T22:54:42.054Z,12.20
2023-05-25T22:57:09.919Z,12.10
2023-05-25T22:59:36.682Z,12.10
2023-05-25T23:02:03.374Z,12.10
2023-05-25T23:04:29.984Z,12.10
2023-05-25T23:06:56.597Z,12.00
2023-05-25T23:09:23.179Z,12.00
2023-05-25T23:11:49.846Z,11.90
2023-05-25T23:14:16.497Z,11.90
2023-05-25T23:16:44.283Z,11.90
2023-05-25T23:19:11.188Z,11.90
2023-05-25T23:21:37.834Z,11.90
2023-05-25T23:24:04.722Z,11.90
2023-05-25T23:26:31.398Z,11.90
2023-05-25T23:28:58.056Z,12.00
2023-05-25T23:31:24.833Z,11.90
2023-05-25T23:33:51.491Z,11.90
2023-05-25T23:36:18.158Z,11.90
2023-05-25T23:38:48.402Z,11.90
2023-05-25T23:41:16.431Z,11.80
2023-05-25T23:43:43.307Z,11.80
2023-05-25T23:46:09.974Z,11.80
2023-05-25T23:48:36.633Z,11.80
2023-05-25T23:51:04.002Z,11.80
2023-05-25T23:53:31.014Z,11.80
2023-05-25T23:55:57.630Z,11.70
2023-05-25T23:58:24.214Z,11.70
